Time,TemperatureF,DewpointF,PressureIn,WindDirection,WindDirectionDegrees,WindSpeedMPH,WindSpeedGustMPH,Humidity,HourlyPrecipIn,Conditions,Clouds,dailyrainin,SoftwareType,DateUTC
2013-01-08 00:00:00,14.0,7.6,30.07,North,0,0.0,0.0,75,0.00,,,0.00,WUHU216HW,2013-01-08 05:00:00,
2013-01-08 00:01:00,14.0,7.6,30.07,North,0,0.0,0.0,75,0.00,,,0.00,WUHU216HW,2013-01-08 05:01:00,
2013-01-08 00:02:00,14.0,7.8,30.07,North,0,0.0,0.0,76,0.00,,,0.00,WUHU216HW,2013-01-08 05:02:00,
2013-01-08 00:07:00,14.0,7.8,30.07,North,0,0.0,0.0,76,0.00,,,0.00,WUHU216HW,2013-01-08 05:07:00,
2013-01-08 00:12:00,13.9,7.4,30.07,North,0,0.0,0.0,75,0.00,,,0.00,WUHU216HW,2013-01-08 05:12:00,
2013-01-08 00:17:00,13.9,7.4,30.06,North,0,0.0,0.0,75,0.00,,,0.00,WUHU216HW,2013-01-08 05:17:00,
2013-01-08 00:22:00,13.5,7.3,30.06,North,0,0.0,0.0,76,0.00,,,0.00,WUHU216HW,2013-01-08 05:22:00,
2013-01-08 00:27:00,13.3,7.1,30.06,North,0,0.0,0.0,76,0.00,,,0.00,WUHU216HW,2013-01-08 05:27:00,
2013-01-08 00:32:00,13.3,7.1,30.05,North,0,0.0,0.0,76,0.00,,,0.00,WUHU216HW,2013-01-08 05:32:00,
2013-01-08 00:37:00,13.3,7.1,30.05,North,0,0.0,0.0,76,0.00,,,0.00,WUHU216HW,2013-01-08 05:37:00,
2013-01-08 00:42:00,13.3,7.1,30.05,North,0,0.0,0.0,76,0.00,,,0.00,WUHU216HW,2013-01-08 05:42:00,
2013-01-08 01:00:00,12.6,6.1,30.05,North,0,0.0,0.0,75,0.00,,,0.00,WUHU216HW,2013-01-08 06:00:00,
2013-01-08 01:05:00,12.6,6.1,30.05,North,0,0.0,0.0,75,0.00,,,0.00,WUHU216HW,2013-01-08 06:05:00,
2013-01-08 01:10:00,12.6,6.1,30.05,North,0,0.0,0.0,75,0.00,,,0.00,WUHU216HW,2013-01-08 06:10:00,
2013-01-08 01:15:00,12.6,6.1,30.05,North,0,0.0,0.0,75,0.00,,,0.00,WUHU216HW,2013-01-08 06:15:00,
2013-01-08 01:20:00,12.6,6.4,30.05,North,0,0.0,0.0,76,0.00,,,0.00,WUHU216HW,2013-01-08 06:20:00,
2013-01-08 01:25:00,12.6,6.1,30.05,North,0,0.0,0.0,75,0.00,,,0.00,WUHU216HW,2013-01-08 06:25:00,
2013-01-08 01:30:00,12.2,6.0,30.05,North,0,0.0,0.0,76,0.00,,,0.00,WUHU216HW,2013-01-08 06:30:00,
2013-01-08 01:35:00,12.2,6.0,30.05,North,0,0.0,0.0,76,0.00,,,0.00,WUHU216HW,2013-01-08 06:35:00,
2013-01-08 01:40:00,12.2,6.0,30.05,North,0,0.0,0.0,76,0.00,,,0.00,WUHU216HW,2013-01-08 06:40:00,
2013-01-08 02:00:00,11.7,5.5,30.05,North,0,0.0,0.0,76,0.00,,,0.00,WUHU216HW,2013-01-08 07:00:00,
2013-01-08 02:05:00,11.7,5.5,30.05,North,0,0.0,0.0,76,0.00,,,0.00,WUHU216HW,2013-01-08 07:05:00,
2013-01-08 02:10:00,11.5,5.6,30.05,North,0,0.0,0.0,77,0.00,,,0.00,WUHU216HW,2013-01-08 07:10:00,
2013-01-08 02:15:00,11.5,5.6,30.05,North,0,0.0,0.0,77,0.00,,,0.00,WUHU216HW,2013-01-08 07:15:00,
2013-01-08 02:20:00,11.3,5.4,30.04,North,0,0.0,0.0,77,0.00,,,0.00,WUHU216HW,2013-01-08 07:20:00,
2013-01-08 02:25:00,11.3,5.4,30.05,North,0,0.0,0.0,77,0.00,,,0.00,WUHU216HW,2013-01-08 07:25:00,
2013-01-08 02:30:00,11.3,5.4,30.04,North,0,0.0,0.0,77,0.00,,,0.00,WUHU216HW,2013-01-08 07:30:00,
2013-01-08 02:35:00,11.3,5.4,30.04,North,0,0.0,0.0,77,0.00,,,0.00,WUHU216HW,2013-01-08 07:35:00,
2013-01-08 02:40:00,11.2,5.2,30.04,North,0,0.0,0.0,77,0.00,,,0.00,WUHU216HW,2013-01-08 07:40:00,
2013-01-08 02:45:00,11.2,5.2,30.04,North,0,0.0,0.0,77,0.00,,,0.00,WUHU216HW,2013-01-08 07:45:00,
2013-01-08 02:50:00,11.2,5.2,30.04,North,0,0.0,0.0,77,0.00,,,0.00,WUHU216HW,2013-01-08 07:50:00,
2013-01-08 03:00:00,11.0,5.0,30.03,North,0,0.0,0.0,77,0.00,,,0.00,WUHU216HW,2013-01-08 08:00:00,
2013-01-08 03:05:00,11.0,5.0,30.03,North,0,0.0,0.0,77,0.00,,,0.00,WUHU216HW,2013-01-08 08:05:00,
2013-01-08 03:10:00,10.8,4.9,30.03,North,0,0.0,0.0,77,0.00,,,0.00,WUHU216HW,2013-01-08 08:10:00,
2013-01-08 03:15:00,10.8,4.9,30.02,North,0,0.0,0.0,77,0.00,,,0.00,WUHU216HW,2013-01-08 08:15:00,
2013-01-08 03:20:00,10.6,4.7,30.02,North,0,0.0,0.0,77,0.00,,,0.00,WUHU216HW,2013-01-08 08:20:00,
2013-01-08 03:25:00,10.4,4.5,30.02,North,0,0.0,0.0,77,0.00,,,0.00,WUHU216HW,2013-01-08 08:25:00,
2013-01-08 03:30:00,10.4,4.5,30.02,North,0,0.0,0.0,77,0.00,,,0.00,WUHU216HW,2013-01-08 08:30:00,
2013-01-08 03:35:00,10.4,4.5,30.02,North,0,0.0,0.0,77,0.00,,,0.00,WUHU216HW,2013-01-08 08:35:00,
2013-01-08 03:40:00,10.4,4.5,30.02,North,0,0.0,0.0,77,0.00,,,0.00,WUHU216HW,2013-01-08 08:40:00,
2013-01-08 04:00:00,10.3,4.4,30.01,North,0,0.0,0.0,77,0.00,,,0.00,WUHU216HW,2013-01-08 09:00:00,
2013-01-08 04:05:00,10.1,4.2,30.00,North,0,0.0,0.0,77,0.00,,,0.00,WUHU216HW,2013-01-08 09:05:00,
2013-01-08 04:10:00,9.9,4.1,30.00,North,0,0.0,0.0,77,0.00,,,0.00,WUHU216HW,2013-01-08 09:10:00,
2013-01-08 04:15:00,9.9,4.1,30.00,North,0,0.0,0.0,77,0.00,,,0.00,WUHU216HW,2013-01-08 09:15:00,
2013-01-08 04:20:00,9.9,4.1,30.00,North,0,0.0,0.0,77,0.00,,,0.00,WUHU216HW,2013-01-08 09:20:00,
2013-01-08 04:25:00,9.9,4.1,30.00,North,0,0.0,0.0,77,0.00,,,0.00,WUHU216HW,2013-01-08 09:25:00,
2013-01-08 04:30:00,9.9,4.1,30.00,North,0,0.0,0.0,77,0.00,,,0.00,WUHU216HW,2013-01-08 09:30:00,
2013-01-08 04:35:00,9.9,4.1,30.00,North,0,0.0,0.0,77,0.00,,,0.00,WUHU216HW,2013-01-08 09:35:00,
2013-01-08 04:40:00,9.9,4.1,30.00,North,0,0.0,0.0,77,0.00,,,0.00,WUHU216HW,2013-01-08 09:40:00,
2013-01-08 05:00:00,9.7,3.9,29.99,North,0,0.0,0.0,77,0.00,,,0.00,WUHU216HW,2013-01-08 10:00:00,
2013-01-08 05:05:00,9.7,3.9,30.00,North,0,0.0,0.0,77,0.00,,,0.00,WUHU216HW,2013-01-08 10:05:00,
2013-01-08 05:10:00,9.7,3.9,30.00,North,0,0.0,0.0,77,0.00,,,0.00,WUHU216HW,2013-01-08 10:10:00,
2013-01-08 05:15:00,9.7,3.9,30.00,North,0,0.0,0.0,77,0.00,,,0.00,WUHU216HW,2013-01-08 10:15:00,
2013-01-08 05:20:00,9.7,3.9,30.00,North,0,0.0,0.0,77,0.00,,,0.00,WUHU216HW,2013-01-08 10:20:00,
2013-01-08 05:25:00,9.5,3.7,30.00,North,0,0.0,0.0,77,0.00,,,0.00,WUHU216HW,2013-01-08 10:25:00,
2013-01-08 05:30:00,9.4,3.6,30.00,North,0,0.0,0.0,77,0.00,,,0.00,WUHU216HW,2013-01-08 10:30:00,
2013-01-08 05:35:00,9.4,3.6,30.00,North,0,0.0,0.0,77,0.00,,,0.00,WUHU216HW,2013-01-08 10:35:00,
2013-01-08 05:40:00,9.4,3.6,30.00,North,0,0.0,0.0,77,0.00,,,0.00,WUHU216HW,2013-01-08 10:40:00,
2013-01-08 06:00:00,9.0,3.5,30.01,North,0,0.0,0.0,78,0.00,,,0.00,WUHU216HW,2013-01-08 11:00:00,
2013-01-08 06:05:00,9.0,3.5,30.02,North,0,0.0,0.0,78,0.00,,,0.00,WUHU216HW,2013-01-08 11:05:00,
2013-01-08 06:10:00,9.0,3.5,30.02,North,0,0.0,0.0,78,0.00,,,0.00,WUHU216HW,2013-01-08 11:10:00,
2013-01-08 06:15:00,9.0,3.5,30.02,North,0,0.0,0.0,78,0.00,,,0.00,WUHU216HW,2013-01-08 11:15:00,
2013-01-08 06:20:00,8.8,3.3,30.03,North,0,0.0,0.0,78,0.00,,,0.00,WUHU216HW,2013-01-08 11:20:00,
2013-01-08 06:25:00,8.6,3.3,30.03,North,0,0.0,0.0,78,0.00,,,0.00,WUHU216HW,2013-01-08 11:25:00,
2013-01-08 06:30:00,8.6,3.3,30.02,North,0,0.0,0.0,78,0.00,,,0.00,WUHU216HW,2013-01-08 11:30:00,
2013-01-08 06:35:00,8.8,3.3,30.03,North,0,0.0,0.0,78,0.00,,,0.00,WUHU216HW,2013-01-08 11:35:00,
2013-01-08 06:40:00,8.8,3.3,30.03,North,0,0.0,0.0,78,0.00,,,0.00,WUHU216HW,2013-01-08 11:40:00,
2013-01-08 07:00:00,9.0,3.5,30.04,North,0,0.0,0.0,78,0.00,,,0.00,WUHU216HW,2013-01-08 12:00:00,
2013-01-08 07:05:00,9.0,3.5,30.04,North,0,0.0,0.0,78,0.00,,,0.00,WUHU216HW,2013-01-08 12:05:00,
2013-01-08 07:10:00,8.8,3.7,30.05,North,0,0.0,0.0,79,0.00,,,0.00,WUHU216HW,2013-01-08 12:10:00,
2013-01-08 07:15:00,8.8,3.7,30.05,North,0,0.0,0.0,79,0.00,,,0.00,WUHU216HW,2013-01-08 12:15:00,
2013-01-08 07:20:00,8.6,3.5,30.05,North,0,0.0,0.0,79,0.00,,,0.00,WUHU216HW,2013-01-08 12:20:00,
2013-01-08 07:25:00,8.6,3.3,30.05,North,0,0.0,0.0,78,0.00,,,0.00,WUHU216HW,2013-01-08 12:25:00,
2013-01-08 07:30:00,8.6,3.5,30.05,North,0,0.0,0.0,79,0.00,,,0.00,WUHU216HW,2013-01-08 12:30:00,
2013-01-08 07:35:00,8.6,3.3,30.06,North,0,0.0,0.0,78,0.00,,,0.00,WUHU216HW,2013-01-08 12:35:00,
2013-01-08 07:40:00,8.6,3.3,30.06,North,0,0.0,0.0,78,0.00,,,0.00,WUHU216HW,2013-01-08 12:40:00,
2013-01-08 07:45:00,8.8,3.3,30.06,North,0,0.0,0.0,78,0.00,,,0.00,WUHU216HW,2013-01-08 12:45:00,
2013-01-08 07:50:00,8.8,3.3,30.06,North,0,0.0,0.0,78,0.00,,,0.00,WUHU216HW,2013-01-08 12:50:00,
2013-01-08 08:00:00,9.2,3.7,30.06,North,0,0.0,0.0,78,0.00,,,0.00,WUHU216HW,2013-01-08 13:00:00,
2013-01-08 08:05:00,9.2,3.7,30.06,North,0,0.0,0.0,78,0.00,,,0.00,WUHU216HW,2013-01-08 13:05:00,
2013-01-08 08:10:00,9.4,3.9,30.06,North,0,0.0,0.0,78,0.00,,,0.00,WUHU216HW,2013-01-08 13:10:00,
2013-01-08 08:15:00,9.4,3.9,30.06,North,0,0.0,0.0,78,0.00,,,0.00,WUHU216HW,2013-01-08 13:15:00,
2013-01-08 08:20:00,9.7,4.5,30.06,North,0,0.0,0.0,79,0.00,,,0.00,WUHU216HW,2013-01-08 13:20:00,
2013-01-08 08:25:00,9.7,4.5,30.06,North,0,0.0,0.0,79,0.00,,,0.00,WUHU216HW,2013-01-08 13:25:00,
2013-01-08 08:30:00,10.1,4.8,30.06,North,0,0.0,0.0,79,0.00,,,0.00,WUHU216HW,2013-01-08 13:30:00,
2013-01-08 08:35:00,10.3,5.0,30.06,North,0,0.0,0.0,79,0.00,,,0.00,WUHU216HW,2013-01-08 13:35:00,
2013-01-08 08:40:00,10.3,5.0,30.06,North,0,0.0,0.0,79,0.00,,,0.00,WUHU216HW,2013-01-08 13:40:00,
2013-01-08 09:00:00,12.1,7.3,30.06,North,0,0.0,0.0,81,0.00,,,0.00,WUHU216HW,2013-01-08 14:00:00,
2013-01-08 09:05:00,12.6,7.8,30.06,North,0,0.0,0.0,81,0.00,,,0.00,WUHU216HW,2013-01-08 14:05:00,
2013-01-08 09:10:00,13.3,8.8,30.06,North,0,0.0,0.0,82,0.00,,,0.00,WUHU216HW,2013-01-08 14:10:00,
2013-01-08 09:15:00,14.0,9.8,30.06,North,0,0.0,0.0,83,0.00,,,0.00,WUHU216HW,2013-01-08 14:15:00,
2013-01-08 09:20:00,14.9,10.7,30.05,North,0,0.0,0.0,83,0.00,,,0.00,WUHU216HW,2013-01-08 14:20:00,
2013-01-08 09:25:00,15.8,11.5,30.05,North,0,0.0,0.0,83,0.00,,,0.00,WUHU216HW,2013-01-08 14:25:00,
2013-01-08 09:30:00,16.9,12.6,30.05,North,0,0.0,0.0,83,0.00,,,0.00,WUHU216HW,2013-01-08 14:30:00,
2013-01-08 09:35:00,17.6,13.2,30.05,North,0,0.0,0.0,83,0.00,,,0.00,WUHU216HW,2013-01-08 14:35:00,
2013-01-08 09:40:00,17.6,13.2,30.05,North,0,0.0,0.0,83,0.00,,,0.00,WUHU216HW,2013-01-08 14:40:00,
2013-01-08 10:00:00,22.1,17.5,30.05,North,0,0.0,0.0,82,0.00,,,0.00,WUHU216HW,2013-01-08 15:00:00,
2013-01-08 10:05:00,23.2,18.5,30.04,North,0,0.0,0.0,82,0.00,,,0.00,WUHU216HW,2013-01-08 15:05:00,
2013-01-08 10:10:00,24.1,19.4,30.04,North,0,0.0,0.0,82,0.00,,,0.00,WUHU216HW,2013-01-08 15:10:00,
2013-01-08 10:15:00,25.2,20.5,30.04,North,0,0.0,0.0,82,0.00,,,0.00,WUHU216HW,2013-01-08 15:15:00,
2013-01-08 10:20:00,26.3,21.3,30.04,North,0,0.0,0.0,81,0.00,,,0.00,WUHU216HW,2013-01-08 15:20:00,
2013-01-08 10:25:00,27.4,22.2,30.04,North,0,0.0,0.0,81,0.00,,,0.00,WUHU216HW,2013-01-08 15:25:00,
2013-01-08 10:30:00,28.3,22.9,30.03,North,0,0.0,0.0,80,0.00,,,0.00,WUHU216HW,2013-01-08 15:30:00,
2013-01-08 10:35:00,28.8,23.4,30.03,North,0,0.0,0.0,80,0.00,,,0.00,WUHU216HW,2013-01-08 15:35:00,
2013-01-08 10:40:00,28.8,23.4,30.03,North,0,0.0,0.0,80,0.00,,,0.00,WUHU216HW,2013-01-08 15:40:00,
2013-01-08 11:00:00,32.0,25.7,30.02,North,0,0.0,0.0,77,0.00,,,0.00,WUHU216HW,2013-01-08 16:00:00,
2013-01-08 11:05:00,32.2,25.5,30.02,North,0,0.0,0.0,76,0.00,,,0.00,WUHU216HW,2013-01-08 16:05:00,
2013-01-08 11:10:00,32.2,25.5,30.02,North,0,0.0,0.0,76,0.00,,,0.00,WUHU216HW,2013-01-08 16:10:00,
2013-01-08 12:00:00,37.1,28.6,30.00,North,0,0.0,0.0,71,0.00,,,0.00,WUHU216HW,2013-01-08 17:00:00,
2013-01-08 12:05:00,37.6,28.8,30.00,North,0,0.0,0.0,70,0.00,,,0.00,WUHU216HW,2013-01-08 17:05:00,
2013-01-08 12:10:00,37.8,29.0,29.99,North,0,0.0,0.0,70,0.00,,,0.00,WUHU216HW,2013-01-08 17:10:00,
2013-01-08 12:15:00,38.2,29.3,29.99,North,0,0.0,0.0,70,0.00,,,0.00,WUHU216HW,2013-01-08 17:15:00,
2013-01-08 12:20:00,38.7,29.8,29.99,North,0,0.0,0.0,70,0.00,,,0.00,WUHU216HW,2013-01-08 17:20:00,
2013-01-08 12:25:00,39.2,29.9,29.99,North,0,0.0,0.0,69,0.00,,,0.00,WUHU216HW,2013-01-08 17:25:00,
2013-01-08 12:30:00,39.6,29.9,29.99,North,0,0.0,0.0,68,0.00,,,0.00,WUHU216HW,2013-01-08 17:30:00,
2013-01-08 12:35:00,39.8,29.6,29.99,North,0,0.0,0.0,67,0.00,,,0.00,WUHU216HW,2013-01-08 17:35:00,
2013-01-08 12:40:00,39.8,29.6,29.99,North,0,0.0,0.0,67,0.00,,,0.00,WUHU216HW,2013-01-08 17:40:00,
2013-01-08 13:00:00,40.7,29.8,29.99,North,0,0.0,0.0,65,0.00,,,0.00,WUHU216HW,2013-01-08 18:00:00,
2013-01-08 13:05:00,40.7,30.2,29.99,North,0,0.0,0.0,66,0.00,,,0.00,WUHU216HW,2013-01-08 18:05:00,
2013-01-08 13:10:00,40.7,29.8,29.99,North,0,0.0,0.0,65,0.00,,,0.00,WUHU216HW,2013-01-08 18:10:00,
2013-01-08 13:15:00,40.7,29.4,29.99,North,0,0.0,0.0,64,0.00,,,0.00,WUHU216HW,2013-01-08 18:15:00,
2013-01-08 13:20:00,40.7,29.4,29.98,North,0,0.0,0.0,64,0.00,,,0.00,WUHU216HW,2013-01-08 18:20:00,
2013-01-08 13:25:00,40.5,28.9,29.98,North,0,0.0,0.0,63,0.00,,,0.00,WUHU216HW,2013-01-08 18:25:00,
2013-01-08 13:30:00,40.7,29.4,29.98,North,0,0.0,0.0,64,0.00,,,0.00,WUHU216HW,2013-01-08 18:30:00,
2013-01-08 13:35:00,40.9,29.6,29.98,North,0,0.0,0.0,64,0.00,,,0.00,WUHU216HW,2013-01-08 18:35:00,
2013-01-08 13:40:00,40.9,29.6,29.98,North,0,0.0,0.0,64,0.00,,,0.00,WUHU216HW,2013-01-08 18:40:00,
2013-01-08 14:00:00,42.7,30.5,29.99,North,0,0.0,0.0,62,0.00,,,0.00,WUHU216HW,2013-01-08 19:00:00,
2013-01-08 14:05:00,42.8,30.7,29.99,North,0,0.0,0.0,62,0.00,,,0.00,WUHU216HW,2013-01-08 19:05:00,
2013-01-08 14:10:00,43.6,31.4,29.99,North,0,0.0,0.0,62,0.00,,,0.00,WUHU216HW,2013-01-08 19:10:00,
2013-01-08 14:15:00,44.1,32.0,29.99,North,0,0.0,0.0,62,0.00,,,0.00,WUHU216HW,2013-01-08 19:15:00,
2013-01-08 14:20:00,44.3,31.3,29.99,North,0,0.0,0.0,60,0.00,,,0.00,WUHU216HW,2013-01-08 19:20:00,
2013-01-08 14:25:00,44.3,30.9,30.00,North,0,0.0,0.0,59,0.00,,,0.00,WUHU216HW,2013-01-08 19:25:00,
2013-01-08 14:30:00,43.7,29.4,30.00,North,0,0.0,0.0,57,0.00,,,0.00,WUHU216HW,2013-01-08 19:30:00,
2013-01-08 14:35:00,43.4,29.1,30.00,North,0,0.0,0.0,57,0.00,,,0.00,WUHU216HW,2013-01-08 19:35:00,
2013-01-08 14:40:00,43.4,29.1,30.00,North,0,0.0,0.0,57,0.00,,,0.00,WUHU216HW,2013-01-08 19:40:00,
2013-01-08 15:00:00,42.8,29.0,30.00,North,0,0.0,0.0,58,0.00,,,0.00,WUHU216HW,2013-01-08 20:00:00,
2013-01-08 15:05:00,43.2,29.3,30.00,North,0,0.0,0.0,58,0.00,,,0.00,WUHU216HW,2013-01-08 20:05:00,
2013-01-08 15:10:00,43.4,29.5,30.00,North,0,0.0,0.0,58,0.00,,,0.00,WUHU216HW,2013-01-08 20:10:00,
2013-01-08 15:15:00,43.4,29.1,30.00,North,0,0.0,0.0,57,0.00,,,0.00,WUHU216HW,2013-01-08 20:15:00,
2013-01-08 15:20:00,43.4,29.5,30.00,North,0,0.0,0.0,58,0.00,,,0.00,WUHU216HW,2013-01-08 20:20:00,
2013-01-08 15:25:00,43.6,28.8,30.00,North,0,0.0,0.0,56,0.00,,,0.00,WUHU216HW,2013-01-08 20:25:00,
2013-01-08 15:30:00,43.2,28.9,30.00,North,0,0.0,0.0,57,0.00,,,0.00,WUHU216HW,2013-01-08 20:30:00,
2013-01-08 15:35:00,42.8,28.2,30.00,North,0,0.0,0.0,56,0.00,,,0.00,WUHU216HW,2013-01-08 20:35:00,
2013-01-08 15:40:00,42.8,28.2,30.00,North,0,0.0,0.0,56,0.00,,,0.00,WUHU216HW,2013-01-08 20:40:00,
2013-01-08 16:00:00,39.6,25.9,30.00,North,0,0.0,0.0,58,0.00,,,0.00,WUHU216HW,2013-01-08 21:00:00,
2013-01-08 16:05:00,39.6,25.9,30.00,North,0,0.0,0.0,58,0.00,,,0.00,WUHU216HW,2013-01-08 21:05:00,
2013-01-08 16:10:00,39.4,26.2,30.00,North,0,0.0,0.0,59,0.00,,,0.00,WUHU216HW,2013-01-08 21:10:00,
2013-01-08 16:15:00,38.9,25.8,30.00,North,0,0.0,0.0,59,0.00,,,0.00,WUHU216HW,2013-01-08 21:15:00,
2013-01-08 16:20:00,38.5,25.4,30.00,North,0,0.0,0.0,59,0.00,,,0.00,WUHU216HW,2013-01-08 21:20:00,
2013-01-08 16:25:00,38.2,25.5,30.00,North,0,0.0,0.0,60,0.00,,,0.00,WUHU216HW,2013-01-08 21:25:00,
2013-01-08 16:30:00,37.6,25.0,30.01,North,0,0.0,0.0,60,0.00,,,0.00,WUHU216HW,2013-01-08 21:30:00,
2013-01-08 16:35:00,37.3,24.7,30.01,North,0,0.0,0.0,60,0.00,,,0.00,WUHU216HW,2013-01-08 21:35:00,
2013-01-08 16:40:00,37.3,24.7,30.01,North,0,0.0,0.0,60,0.00,,,0.00,WUHU216HW,2013-01-08 21:40:00,
2013-01-08 17:00:00,34.6,22.9,30.02,North,0,0.0,0.0,62,0.00,,,0.00,WUHU216HW,2013-01-08 22:00:00,
2013-01-08 17:05:00,34.0,22.7,30.02,North,0,0.0,0.0,63,0.00,,,0.00,WUHU216HW,2013-01-08 22:05:00,
2013-01-08 17:10:00,33.3,22.1,30.02,North,0,0.0,0.0,63,0.00,,,0.00,WUHU216HW,2013-01-08 22:10:00,
2013-01-08 17:15:00,32.6,21.7,30.02,North,0,0.0,0.0,64,0.00,,,0.00,WUHU216HW,2013-01-08 22:15:00,
2013-01-08 17:20:00,31.9,21.4,30.03,North,0,0.0,0.0,65,0.00,,,0.00,WUHU216HW,2013-01-08 22:20:00,
2013-01-08 17:25:00,31.3,21.2,30.03,North,0,0.0,0.0,66,0.00,,,0.00,WUHU216HW,2013-01-08 22:25:00,
2013-01-08 17:30:00,30.8,20.7,30.03,North,0,0.0,0.0,66,0.00,,,0.00,WUHU216HW,2013-01-08 22:30:00,
2013-01-08 17:35:00,30.4,20.7,30.03,North,0,0.0,0.0,67,0.00,,,0.00,WUHU216HW,2013-01-08 22:35:00,
2013-01-08 17:40:00,30.4,20.7,30.03,North,0,0.0,0.0,67,0.00,,,0.00,WUHU216HW,2013-01-08 22:40:00,
2013-01-08 18:00:00,29.2,20.6,30.04,North,0,0.0,0.0,70,0.00,,,0.00,WUHU216HW,2013-01-08 23:00:00,
2013-01-08 18:05:00,29.0,20.4,30.04,North,0,0.0,0.0,70,0.00,,,0.00,WUHU216HW,2013-01-08 23:05:00,
2013-01-08 18:10:00,28.6,20.2,30.04,North,0,0.0,0.0,70,0.00,,,0.00,WUHU216HW,2013-01-08 23:10:00,
2013-01-08 18:15:00,28.4,20.0,30.05,North,0,0.0,0.0,70,0.00,,,0.00,WUHU216HW,2013-01-08 23:15:00,
2013-01-08 18:20:00,28.1,19.9,30.05,North,0,0.0,0.0,71,0.00,,,0.00,WUHU216HW,2013-01-08 23:20:00,
2013-01-08 18:25:00,27.9,19.7,30.05,North,0,0.0,0.0,71,0.00,,,0.00,WUHU216HW,2013-01-08 23:25:00,
2013-01-08 18:30:00,27.5,19.4,30.06,North,0,0.0,0.0,71,0.00,,,0.00,WUHU216HW,2013-01-08 23:30:00,
2013-01-08 18:35:00,27.4,19.5,30.06,North,0,0.0,0.0,72,0.00,,,0.00,WUHU216HW,2013-01-08 23:35:00,
2013-01-08 18:40:00,27.4,19.5,30.06,North,0,0.0,0.0,72,0.00,,,0.00,WUHU216HW,2013-01-08 23:40:00,
2013-01-08 19:00:00,26.3,18.5,30.07,North,0,0.0,0.0,72,0.00,,,0.00,WUHU216HW,2013-01-09 00:00:00,
2013-01-08 19:05:00,26.3,18.7,30.07,North,0,0.0,0.0,73,0.00,,,0.00,WUHU216HW,2013-01-09 00:05:00,
2013-01-08 19:10:00,26.3,18.7,30.07,North,0,0.0,0.0,73,0.00,,,0.00,WUHU216HW,2013-01-09 00:10:00,
2013-01-08 19:15:00,26.1,18.5,30.08,North,0,0.0,0.0,73,0.00,,,0.00,WUHU216HW,2013-01-09 00:15:00,
2013-01-08 19:20:00,25.9,18.4,30.08,North,0,0.0,0.0,73,0.00,,,0.00,WUHU216HW,2013-01-09 00:20:00,
2013-01-08 19:25:00,25.7,18.3,30.08,North,0,0.0,0.0,73,0.00,,,0.00,WUHU216HW,2013-01-09 00:25:00,
2013-01-08 19:30:00,25.6,18.4,30.08,North,0,0.0,0.0,74,0.00,,,0.00,WUHU216HW,2013-01-09 00:30:00,
2013-01-08 19:35:00,25.6,18.4,30.08,North,0,0.0,0.0,74,0.00,,,0.00,WUHU216HW,2013-01-09 00:35:00,
2013-01-08 19:40:00,25.6,18.4,30.08,North,0,0.0,0.0,74,0.00,,,0.00,WUHU216HW,2013-01-09 00:40:00,
2013-01-08 20:01:00,24.1,17.7,30.09,North,0,0.0,0.0,76,0.00,,,0.00,WUHU216HW,2013-01-09 01:01:00,
2013-01-08 20:06:00,24.1,17.7,30.09,North,0,0.0,0.0,76,0.00,,,0.00,WUHU216HW,2013-01-09 01:06:00,
2013-01-08 20:11:00,24.1,17.9,30.09,North,0,0.0,0.0,77,0.00,,,0.00,WUHU216HW,2013-01-09 01:11:00,
2013-01-08 20:16:00,24.1,17.9,30.09,North,0,0.0,0.0,77,0.00,,,0.00,WUHU216HW,2013-01-09 01:16:00,
2013-01-08 20:21:00,23.9,17.8,30.09,North,0,0.0,0.0,77,0.00,,,0.00,WUHU216HW,2013-01-09 01:21:00,
2013-01-08 20:26:00,23.8,17.7,30.09,North,0,0.0,0.0,77,0.00,,,0.00,WUHU216HW,2013-01-09 01:26:00,
2013-01-08 20:32:00,23.9,17.8,30.09,North,0,0.0,0.0,77,0.00,,,0.00,WUHU216HW,2013-01-09 01:32:00,
2013-01-08 20:37:00,23.8,17.7,30.09,North,0,0.0,0.0,77,0.00,,,0.00,WUHU216HW,2013-01-09 01:37:00,
2013-01-08 20:42:00,23.6,17.5,30.09,North,0,0.0,0.0,77,0.00,,,0.00,WUHU216HW,2013-01-09 01:42:00,
2013-01-08 20:47:00,23.6,17.5,30.09,North,0,0.0,0.0,77,0.00,,,0.00,WUHU216HW,2013-01-09 01:47:00,
2013-01-08 21:00:00,23.6,17.5,30.10,North,0,0.0,0.0,77,0.00,,,0.00,WUHU216HW,2013-01-09 02:00:00,
2013-01-08 21:05:00,23.4,17.3,30.10,North,0,0.0,0.0,77,0.00,,,0.00,WUHU216HW,2013-01-09 02:05:00,
2013-01-08 21:10:00,23.4,17.3,30.10,North,0,0.0,0.0,77,0.00,,,0.00,WUHU216HW,2013-01-09 02:10:00,
2013-01-08 22:00:00,23.0,17.6,30.10,North,0,0.0,0.0,79,0.00,,,0.00,WUHU216HW,2013-01-09 03:00:00,
2013-01-08 22:05:00,23.0,17.2,30.10,North,0,0.0,0.0,78,0.00,,,0.00,WUHU216HW,2013-01-09 03:05:00,
2013-01-08 22:10:00,23.0,17.6,30.10,North,0,0.0,0.0,79,0.00,,,0.00,WUHU216HW,2013-01-09 03:10:00,
2013-01-08 22:15:00,23.0,17.6,30.09,North,0,0.0,0.0,79,0.00,,,0.00,WUHU216HW,2013-01-09 03:15:00,
2013-01-08 22:20:00,23.0,17.6,30.09,North,0,0.0,0.0,79,0.00,,,0.00,WUHU216HW,2013-01-09 03:20:00,
2013-01-08 22:25:00,23.0,17.2,30.10,North,0,0.0,0.0,78,0.00,,,0.00,WUHU216HW,2013-01-09 03:25:00,
2013-01-08 22:30:00,22.9,17.4,30.10,North,0,0.0,0.0,79,0.00,,,0.00,WUHU216HW,2013-01-09 03:30:00,
2013-01-08 22:35:00,22.9,17.4,30.10,North,0,0.0,0.0,79,0.00,,,0.00,WUHU216HW,2013-01-09 03:35:00,
2013-01-08 22:40:00,22.9,17.4,30.10,North,0,0.0,0.0,79,0.00,,,0.00,WUHU216HW,2013-01-09 03:40:00,
2013-01-08 23:00:00,22.9,17.4,30.10,North,0,0.0,0.0,79,0.00,,,0.00,WUHU216HW,2013-01-09 04:00:00,
2013-01-08 23:05:00,22.7,17.2,30.10,North,0,0.0,0.0,79,0.00,,,0.00,WUHU216HW,2013-01-09 04:05:00,
2013-01-08 23:10:00,22.9,17.4,30.10,North,0,0.0,0.0,79,0.00,,,0.00,WUHU216HW,2013-01-09 04:10:00,
2013-01-08 23:15:00,22.7,17.2,30.10,North,0,0.0,0.0,79,0.00,,,0.00,WUHU216HW,2013-01-09 04:15:00,
2013-01-08 23:20:00,22.7,17.2,30.10,North,0,0.0,0.0,79,0.00,,,0.00,WUHU216HW,2013-01-09 04:20:00,
2013-01-08 23:25:00,22.7,17.2,30.10,North,0,0.0,0.0,79,0.00,,,0.00,WUHU216HW,2013-01-09 04:25:00,
2013-01-08 23:30:00,22.7,17.2,30.10,North,0,0.0,0.0,79,0.00,,,0.00,WUHU216HW,2013-01-09 04:30:00,
2013-01-08 23:35:00,22.7,17.5,30.10,North,0,0.0,0.0,80,0.00,,,0.00,WUHU216HW,2013-01-09 04:35:00,
2013-01-08 23:40:00,22.7,17.5,30.10,North,0,0.0,0.0,80,0.00,,,0.00,WUHU216HW,2013-01-09 04:40:00,